Time;durP1;ratioP1;P1;durP2;ratioP2;P2;SDS_P1;SDS_P2;PMS_P1;PMS_P2;Temp;Humidity;BMP_temperature;BMP_pressure;BME280_temperature;BME280_humidity;BME280_pressure;Samples;Min_cycle;Max_cycle;Signal;HPM_P1;HPM_P2
2023/04/23 00:02:01;;;;;;;103.07;54.92;;;;;;;9.42;100.00;-18281.63;4971312;28;20557;-83
2023/04/23 00:04:29;;;;;;;114.38;61.72;;;;;;;9.43;100.00;-18282.03;4971962;28;20046;-85
2023/04/23 00:06:55;;;;;;;104.55;52.08;;;;;;;9.40;100.00;-18281.22;4969417;28;20054;-83
2023/04/23 00:09:21;;;;;;;113.07;61.17;;;;;;;9.45;100.00;-18282.59;4967962;28;20085;-84
2023/04/23 00:11:47;;;;;;;111.03;58.28;;;;;;;9.46;100.00;-18282.72;4970438;28;20121;-84
2023/04/23 00:14:13;;;;;;;116.97;64.10;;;;;;;9.44;100.00;-18282.19;4971506;28;20533;-83
2023/04/23 00:16:39;;;;;;;111.18;59.45;;;;;;;9.39;100.00;-18280.94;4968155;28;20116;-84
2023/04/23 00:19:04;;;;;;;117.85;61.35;;;;;;;9.40;100.00;-18281.22;4967809;28;20051;-86
2023/04/23 00:21:30;;;;;;;118.03;64.70;;;;;;;9.37;100.00;-18280.25;4968863;28;20042;-84
2023/04/23 00:23:56;;;;;;;113.35;58.47;;;;;;;9.34;100.00;-18279.56;4966905;28;20138;-83
2023/04/23 00:26:21;;;;;;;106.72;55.50;;;;;;;9.26;100.00;-18277.50;4969483;28;20038;-83
2023/04/23 00:28:47;;;;;;;111.60;57.20;;;;;;;9.26;100.00;-18277.34;4966989;28;20101;-83
2023/04/23 00:31:12;;;;;;;116.60;64.07;;;;;;;9.25;100.00;-18277.09;4968340;28;20055;-84
2023/04/23 00:33:37;;;;;;;114.28;56.22;;;;;;;9.24;100.00;-18276.81;4982059;28;20038;-83
2023/04/23 00:36:03;;;;;;;110.57;58.63;;;;;;;9.23;100.00;-18276.53;4968135;28;20106;-86
2023/04/23 00:38:28;;;;;;;113.22;58.55;;;;;;;9.26;100.00;-18277.34;4982782;28;20054;-84
2023/04/23 00:40:54;;;;;;;112.40;60.80;;;;;;;9.25;100.00;-18277.09;4970063;28;20070;-83
2023/04/23 00:43:19;;;;;;;114.40;57.00;;;;;;;9.19;100.00;-18275.56;4969328;28;20545;-83
2023/04/23 00:45:46;;;;;;;114.05;60.92;;;;;;;9.22;100.00;-18276.25;4967477;28;20039;-83
2023/04/23 00:48:12;;;;;;;112.32;58.10;;;;;;;9.20;100.00;-18275.84;4968963;28;20081;-84
2023/04/23 00:50:37;;;;;;;117.13;62.85;;;;;;;9.22;100.00;-18276.25;4969595;28;20578;-84
2023/04/23 00:53:03;;;;;;;116.03;61.45;;;;;;;9.21;100.00;-18276.13;4972617;28;20500;-83
2023/04/23 00:55:28;;;;;;;118.53;60.25;;;;;;;9.19;100.00;-18275.56;4972931;28;20043;-85
2023/04/23 00:57:54;;;;;;;117.22;59.13;;;;;;;9.20;100.00;-18275.84;4973358;28;20049;-85
2023/04/23 01:00:20;;;;;;;118.78;60.45;;;;;;;9.20;100.00;-18275.72;4985446;28;20070;-83
2023/04/23 01:02:46;;;;;;;119.22;59.50;;;;;;;9.16;100.00;-18274.75;4970883;28;20569;-85
2023/04/23 01:05:14;;;;;;;112.25;53.65;;;;;;;9.14;100.00;-18274.06;4970169;28;20134;-83
2023/04/23 01:07:42;;;;;;;112.00;58.67;;;;;;;9.13;100.00;-18273.78;4971631;28;20043;-83
2023/04/23 01:10:08;;;;;;;116.32;59.15;;;;;;;9.11;100.00;-18273.38;4969410;28;20127;-83
2023/04/23 01:12:33;;;;;;;126.38;64.35;;;;;;;9.10;100.00;-18273.09;4971700;28;20964;-83
2023/04/23 01:14:59;;;;;;;122.13;59.42;;;;;;;9.09;100.00;-18272.69;4971672;28;20129;-83
2023/04/23 01:17:25;;;;;;;128.95;65.63;;;;;;;9.07;100.00;-18272.28;4973442;28;20122;-84
2023/04/23 01:19:51;;;;;;;122.25;65.53;;;;;;;9.08;100.00;-18272.53;4971423;28;20105;-83
2023/04/23 01:22:16;;;;;;;131.90;66.53;;;;;;;9.06;100.00;-18271.84;4972104;28;20062;-84
2023/04/23 01:24:42;;;;;;;125.43;64.30;;;;;;;9.03;100.00;-18271.16;4987918;28;21157;-83
2023/04/23 01:27:08;;;;;;;125.47;60.92;;;;;;;8.98;100.00;-18269.94;4971956;28;20046;-83
2023/04/23 01:29:35;;;;;;;124.40;61.67;;;;;;;8.98;100.00;-18269.94;4972256;28;20051;-82
2023/04/23 01:32:01;;;;;;;131.38;65.10;;;;;;;8.99;100.00;-18270.22;4971077;28;20118;-84
2023/04/23 01:34:29;;;;;;;123.07;59.45;;;;;;;9.01;100.00;-18270.63;4973014;28;20042;-84
2023/04/23 01:36:55;;;;;;;128.65;63.15;;;;;;;9.02;100.00;-18270.91;4972464;28;20061;-84
2023/04/23 01:39:21;;;;;;;125.97;60.08;;;;;;;8.94;100.00;-18268.84;4970533;28;20066;-84
2023/04/23 01:41:47;;;;;;;125.13;64.78;;;;;;;8.91;100.00;-18268.00;4971002;28;20051;-83
2023/04/23 01:44:12;;;;;;;130.70;63.70;;;;;;;8.85;100.00;-18266.22;4971129;28;20049;-82
2023/04/23 01:46:37;;;;;;;127.65;61.35;;;;;;;8.83;100.00;-18265.81;4971408;28;20039;-85
2023/04/23 01:49:03;;;;;;;121.80;59.03;;;;;;;8.84;100.00;-18265.94;4970955;28;20053;-85
2023/04/23 01:51:29;;;;;;;129.95;64.15;;;;;;;8.85;100.00;-18266.22;4987376;28;20046;-83
2023/04/23 01:53:54;;;;;;;127.93;64.80;;;;;;;8.75;100.00;-18263.75;4972519;28;20074;-83
2023/04/23 01:56:24;;;;;;;126.93;63.80;;;;;;;8.67;100.00;-18261.41;4973962;28;20173;-83
2023/04/23 01:58:50;;;;;;;139.90;67.78;;;;;;;8.60;100.00;-18259.63;4970580;28;20139;-85
2023/04/23 02:01:16;;;;;;;135.88;66.10;;;;;;;8.58;100.00;-18259.06;4972508;28;20121;-83
2023/04/23 02:03:41;;;;;;;129.65;64.13;;;;;;;8.57;100.00;-18258.78;4970167;28;20050;-82
2023/04/23 02:06:07;;;;;;;141.13;69.15;;;;;;;8.52;100.00;-18257.41;4968166;28;20059;-85
2023/04/23 02:08:32;;;;;;;141.55;66.25;;;;;;;8.47;100.00;-18256.16;4969791;28;20573;-83
2023/04/23 02:10:57;;;;;;;141.50;67.63;;;;;;;8.45;100.00;-18255.47;4970694;28;20061;-83
2023/04/23 02:13:23;;;;;;;145.90;72.93;;;;;;;8.40;100.00;-18254.09;4985590;28;20065;-84
2023/04/23 02:15:48;;;;;;;139.38;69.43;;;;;;;8.40;100.00;-18254.25;4970945;28;20078;-84
2023/04/23 02:18:13;;;;;;;148.88;70.50;;;;;;;8.42;100.00;-18254.66;4970911;28;20038;-83
2023/04/23 02:20:40;;;;;;;144.07;66.38;;;;;;;8.36;100.00;-18253.28;4969848;28;20692;-83
2023/04/23 02:23:08;;;;;;;142.57;68.93;;;;;;;8.36;100.00;-18253.28;4969619;28;20042;-82
2023/04/23 02:25:37;;;;;;;148.48;63.42;;;;;;;8.39;100.00;-18253.84;4970656;28;20501;-83
2023/04/23 02:28:05;;;;;;;147.32;63.40;;;;;;;8.43;100.00;-18254.94;4971075;28;20053;-85
2023/04/23 02:30:30;;;;;;;152.70;67.65;;;;;;;8.43;100.00;-18255.06;4972293;28;20050;-83
2023/04/23 02:32:55;;;;;;;137.77;61.58;;;;;;;8.43;100.00;-18254.94;4972036;28;20377;-83
2023/04/23 02:35:22;;;;;;;153.07;69.35;;;;;;;8.46;100.00;-18255.75;4972141;28;20070;-83
2023/04/23 02:37:47;;;;;;;146.50;67.57;;;;;;;8.47;100.00;-18256.03;4971928;28;20051;-83
2023/04/23 02:40:12;;;;;;;151.30;70.60;;;;;;;8.47;100.00;-18256.03;4973283;28;20053;-84
2023/04/23 02:42:38;;;;;;;148.20;67.85;;;;;;;8.49;100.00;-18256.59;4974767;28;20038;-83
2023/04/23 02:45:03;;;;;;;162.60;72.63;;;;;;;8.49;100.00;-18256.59;4977098;28;20085;-84
2023/04/23 02:47:30;;;;;;;145.32;65.88;;;;;;;8.52;100.00;-18257.41;4977009;28;20035;-86
2023/04/23 02:49:55;;;;;;;150.05;67.63;;;;;;;8.49;100.00;-18256.72;4976326;28;20066;-84
2023/04/23 02:52:20;;;;;;;150.48;66.20;;;;;;;8.51;100.00;-18257.28;4993038;28;20451;-85
2023/04/23 02:54:46;;;;;;;148.07;68.57;;;;;;;8.52;100.00;-18257.56;4975443;28;20045;-83
2023/04/23 02:57:13;;;;;;;149.65;68.60;;;;;;;8.51;100.00;-18257.13;4984691;28;20050;-83
2023/04/23 02:59:38;;;;;;;158.23;72.28;;;;;;;8.48;100.00;-18256.31;4974352;28;20514;-83
2023/04/23 03:02:04;;;;;;;150.77;64.93;;;;;;;8.46;100.00;-18255.75;4974615;28;20049;-83
2023/04/23 03:04:29;;;;;;;153.18;67.43;;;;;;;8.47;100.00;-18256.03;4976641;28;20446;-83
2023/04/23 03:06:55;;;;;;;158.68;71.45;;;;;;;8.42;100.00;-18254.78;4974861;28;20108;-84
2023/04/23 03:09:20;;;;;;;160.00;69.25;;;;;;;8.46;100.00;-18255.75;4974166;28;20054;-86
2023/04/23 03:11:46;;;;;;;160.73;68.60;;;;;;;8.43;100.00;-18254.94;4974857;28;20034;-85
2023/04/23 03:14:12;;;;;;;160.52;70.35;;;;;;;8.41;100.00;-18254.38;4974437;28;20097;-86
2023/04/23 03:16:37;;;;;;;160.10;68.90;;;;;;;8.39;100.00;-18253.84;4975839;28;20121;-83
2023/04/23 03:19:03;;;;;;;160.35;74.03;;;;;;;8.39;100.00;-18253.84;4974371;28;20039;-84
2023/04/23 03:21:28;;;;;;;162.13;71.20;;;;;;;8.39;100.00;-18253.97;4975262;28;20093;-84
2023/04/23 03:23:53;;;;;;;158.30;71.40;;;;;;;8.38;100.00;-18253.69;4975107;28;20070;-83
2023/04/23 03:26:19;;;;;;;160.32;67.63;;;;;;;8.38;100.00;-18253.69;4976082;28;20033;-83
2023/04/23 03:28:44;;;;;;;161.65;68.70;;;;;;;8.36;100.00;-18253.13;4984234;28;20043;-84
2023/04/23 03:31:10;;;;;;;158.60;70.63;;;;;;;8.35;100.00;-18253.00;4991445;28;20043;-83
2023/04/23 03:33:35;;;;;;;161.75;71.32;;;;;;;8.33;100.00;-18252.31;4976632;28;20043;-83
2023/04/23 03:36:01;;;;;;;161.80;69.82;;;;;;;8.33;100.00;-18252.44;4975227;28;20050;-83
2023/04/23 03:38:26;;;;;;;161.38;68.55;;;;;;;8.34;100.00;-18252.72;4975213;28;20050;-83
2023/04/23 03:40:52;;;;;;;163.48;69.35;;;;;;;8.36;100.00;-18253.28;4991501;28;20035;-83
2023/04/23 03:43:17;;;;;;;159.80;67.85;;;;;;;8.35;100.00;-18252.88;4981538;28;20186;-83
2023/04/23 03:45:42;;;;;;;162.30;72.45;;;;;;;8.35;100.00;-18252.88;4984992;28;20775;-85
2023/04/23 03:48:07;;;;;;;159.13;67.85;;;;;;;8.34;100.00;-18252.59;4979034;28;20057;-84
2023/04/23 03:50:37;;;;;;;157.02;66.50;;;;;;;8.36;100.00;-18253.28;4978001;28;20046;-83
2023/04/23 03:53:03;;;;;;;154.07;66.15;;;;;;;8.39;100.00;-18253.97;4977976;28;20109;-83
2023/04/23 03:55:28;;;;;;;163.25;67.47;;;;;;;8.43;100.00;-18254.94;4978498;28;20066;-83
2023/04/23 03:57:54;;;;;;;154.73;63.13;;;;;;;8.43;100.00;-18254.94;4975749;28;20089;-83
2023/04/23 04:00:20;;;;;;;163.82;71.50;;;;;;;8.46;100.00;-18255.75;4974081;28;20557;-83
2023/04/23 04:02:45;;;;;;;152.10;62.22;;;;;;;8.43;100.00;-18255.06;4972132;28;20075;-84
2023/04/23 04:05:11;;;;;;;153.65;66.50;;;;;;;8.43;100.00;-18255.06;4978239;28;20134;-83
2023/04/23 04:07:36;;;;;;;152.65;67.57;;;;;;;8.45;100.00;-18255.47;4975808;28;20058;-83
2023/04/23 04:10:03;;;;;;;157.05;67.13;;;;;;;8.44;100.00;-18255.22;4972399;28;20047;-84
2023/04/23 04:12:29;;;;;;;150.73;68.47;;;;;;;8.40;100.00;-18254.09;4977153;28;20039;-83
2023/04/23 04:14:55;;;;;;;152.30;66.20;;;;;;;8.33;100.00;-18252.44;4972922;28;20051;-84
2023/04/23 04:17:20;;;;;;;141.13;63.22;;;;;;;8.34;100.00;-18252.59;4971782;28;20042;-84
2023/04/23 04:19:45;;;;;;;146.45;61.45;;;;;;;8.35;100.00;-18253.00;4972007;28;20042;-84
2023/04/23 04:22:11;;;;;;;135.73;59.85;;;;;;;8.33;100.00;-18252.44;4974049;28;20532;-84
2023/04/23 04:24:36;;;;;;;149.60;67.13;;;;;;;8.32;100.00;-18252.19;4970831;28;20043;-83
2023/04/23 04:27:03;;;;;;;152.27;69.25;;;;;;;8.29;100.00;-18251.34;4972864;28;20057;-83
2023/04/23 04:29:30;;;;;;;146.93;66.78;;;;;;;8.27;100.00;-18250.78;4982424;28;20515;-83
2023/04/23 04:31:55;;;;;;;151.02;66.15;;;;;;;8.25;100.00;-18250.09;4976001;28;20145;-83
2023/04/23 04:34:21;;;;;;;145.10;65.35;;;;;;;8.25;100.00;-18250.09;4975249;28;20078;-84
2023/04/23 04:36:46;;;;;;;151.73;65.50;;;;;;;8.19;100.00;-18248.59;4973586;28;20050;-83
2023/04/23 04:39:13;;;;;;;151.82;65.78;;;;;;;8.19;100.00;-18248.59;4979199;28;20147;-83
2023/04/23 04:41:39;;;;;;;156.27;69.03;;;;;;;8.18;100.00;-18248.19;4973953;28;20047;-84
2023/04/23 04:44:07;;;;;;;146.07;61.95;;;;;;;8.17;100.00;-18247.91;4974012;28;20136;-83
2023/04/23 04:46:33;;;;;;;136.43;58.67;;;;;;;8.19;100.00;-18248.59;4973662;28;20031;-83
2023/04/23 04:48:59;;;;;;;146.48;64.63;;;;;;;8.21;100.00;-18249.16;4971121;28;20171;-85
2023/04/23 04:51:25;;;;;;;142.73;57.60;;;;;;;8.20;100.00;-18248.88;4972526;28;20046;-85
2023/04/23 04:53:51;;;;;;;146.25;67.13;;;;;;;8.25;100.00;-18250.25;4971976;28;20039;-82
2023/04/23 04:56:17;;;;;;;143.25;67.28;;;;;;;8.31;100.00;-18251.75;4971281;28;20645;-82
2023/04/23 04:58:42;;;;;;;140.95;62.72;;;;;;;8.35;100.00;-18252.88;4970879;28;20047;-82
2023/04/23 05:01:08;;;;;;;142.13;64.72;;;;;;;8.37;100.00;-18253.41;4973630;28;22459;-82
2023/04/23 05:03:34;;;;;;;143.52;61.83;;;;;;;8.41;100.00;-18254.38;4977133;28;20058;-82
2023/04/23 05:05:59;;;;;;;142.75;60.72;;;;;;;8.45;100.00;-18255.63;4982307;28;20038;-82
2023/04/23 05:08:25;;;;;;;147.63;62.78;;;;;;;8.47;100.00;-18256.03;4975836;28;20670;-81
2023/04/23 05:10:50;;;;;;;138.48;62.15;;;;;;;8.45;100.00;-18255.63;4982626;28;20038;-82
2023/04/23 05:13:16;;;;;;;140.70;64.60;;;;;;;8.44;100.00;-18255.22;4974216;28;20050;-81
2023/04/23 05:15:42;;;;;;;144.70;66.68;;;;;;;8.43;100.00;-18255.06;4977784;28;20823;-82
2023/04/23 05:18:09;;;;;;;143.05;61.92;;;;;;;8.45;100.00;-18255.47;4973598;28;20130;-82
2023/04/23 05:20:35;;;;;;;144.00;66.80;;;;;;;8.47;100.00;-18256.03;4975165;28;20133;-81
2023/04/23 05:23:01;;;;;;;139.57;65.07;;;;;;;8.50;100.00;-18256.88;4982299;28;20491;-81
2023/04/23 05:25:28;;;;;;;131.77;62.55;;;;;;;8.55;100.00;-18258.25;4975864;28;20183;-82
2023/04/23 05:27:54;;;;;;;136.35;65.18;;;;;;;8.59;100.00;-18259.34;4981585;28;20135;-82
2023/04/23 05:30:19;;;;;;;137.68;60.95;;;;;;;8.64;100.00;-18260.72;4975156;28;20069;-82
2023/04/23 05:32:44;;;;;;;137.32;64.53;;;;;;;8.69;100.00;-18261.94;4989491;28;20054;-81
2023/04/23 05:35:10;;;;;;;133.02;64.78;;;;;;;8.75;100.00;-18263.75;4974060;28;20043;-82
2023/04/23 05:37:35;;;;;;;113.30;53.17;;;;;;;8.82;100.00;-18265.66;4977412;28;20065;-82
2023/04/23 05:40:01;;;;;;;119.10;56.38;;;;;;;8.95;100.00;-18269.09;4974619;28;20045;-81
2023/04/23 05:42:27;;;;;;;116.43;55.53;;;;;;;9.07;100.00;-18272.13;4978377;28;20113;-82
2023/04/23 05:44:52;;;;;;;100.95;47.30;;;;;;;9.20;100.00;-18275.72;4975261;28;20141;-82
2023/04/23 05:47:18;;;;;;;111.00;55.47;;;;;;;9.34;100.00;-18279.56;4978985;28;20039;-82
2023/04/23 05:49:43;;;;;;;100.93;52.05;;;;;;;9.47;100.00;-18283.13;4980825;28;20050;-81
2023/04/23 05:52:08;;;;;;;100.20;51.30;;;;;;;9.54;100.00;-18284.94;4983391;28;20038;-81
2023/04/23 05:54:34;;;;;;;98.93;53.58;;;;;;;9.58;100.00;-18286.03;4974916;28;20043;-82
2023/04/23 05:57:00;;;;;;;96.78;50.15;;;;;;;9.63;100.00;-18287.25;4978298;28;20045;-81
2023/04/23 05:59:25;;;;;;;94.43;52.42;;;;;;;9.68;100.00;-18288.63;4980182;28;20034;-81
2023/04/23 06:01:51;;;;;;;90.28;45.97;;;;;;;9.73;100.00;-18289.88;4978075;28;20055;-81
2023/04/23 06:04:16;;;;;;;79.72;46.70;;;;;;;9.77;100.00;-18290.97;4979702;28;20051;-81
2023/04/23 06:06:42;;;;;;;76.65;44.72;;;;;;;9.86;100.00;-18293.44;4974752;28;20046;-80
2023/04/23 06:09:08;;;;;;;78.40;43.95;;;;;;;9.93;100.00;-18295.38;4973682;28;20039;-81
2023/04/23 06:11:34;;;;;;;75.78;45.08;;;;;;;10.04;100.00;-18298.25;4976666;28;20058;-81
2023/04/23 06:14:03;;;;;;;70.70;41.55;;;;;;;10.08;100.00;-18299.50;4975140;28;20038;-81
2023/04/23 06:16:29;;;;;;;64.47;37.78;;;;;;;10.15;100.00;-18301.41;4981913;28;20042;-81
2023/04/23 06:18:55;;;;;;;65.03;36.28;;;;;;;10.22;100.00;-18303.06;4974198;28;20093;-81
2023/04/23 06:21:21;;;;;;;61.70;37.75;;;;;;;10.26;100.00;-18304.16;4975931;28;20837;-80
2023/04/23 06:23:47;;;;;;;63.75;39.95;;;;;;;10.32;100.00;-18305.81;4976282;28;20043;-81
2023/04/23 06:26:12;;;;;;;58.53;37.03;;;;;;;10.36;100.00;-18307.06;4972473;28;20054;-81
2023/04/23 06:28:38;;;;;;;59.20;36.10;;;;;;;10.39;100.00;-18307.75;4981503;28;20047;-81
2023/04/23 06:31:04;;;;;;;54.53;33.58;;;;;;;10.36;100.00;-18307.06;4977377;28;20039;-80
2023/04/23 06:33:30;;;;;;;47.72;31.95;;;;;;;10.39;100.00;-18307.75;4974508;28;20663;-82
2023/04/23 06:35:55;;;;;;;55.00;35.67;;;;;;;10.43;100.00;-18308.84;4974300;28;20039;-82
2023/04/23 06:38:21;;;;;;;52.40;33.45;;;;;;;10.44;100.00;-18309.13;4977723;28;20034;-81
2023/04/23 06:40:47;;;;;;;48.50;33.75;;;;;;;10.45;100.00;-18309.41;4978335;28;20067;-81
2023/04/23 06:43:13;;;;;;;48.45;27.92;;;;;;;10.44;100.00;-18309.13;4976857;28;20526;-81
2023/04/23 06:45:39;;;;;;;45.50;26.52;;;;;;;10.44;100.00;-18309.13;4975137;28;20035;-82
2023/04/23 06:48:04;;;;;;;48.92;31.35;;;;;;;10.48;100.00;-18310.22;4975168;28;20066;-82
2023/04/23 06:50:30;;;;;;;45.22;30.45;;;;;;;10.52;100.00;-18311.31;4975796;28;20435;-82
2023/04/23 06:52:55;;;;;;;46.45;31.10;;;;;;;10.59;100.00;-18313.13;4976444;28;20114;-82
2023/04/23 06:55:24;;;;;;;45.28;28.63;;;;;;;10.65;100.00;-18314.63;4977768;28;20499;-81
2023/04/23 06:57:52;;;;;;;45.33;31.45;;;;;;;10.76;100.00;-18317.63;4981604;28;20046;-82
2023/04/23 07:00:18;;;;;;;37.35;27.98;;;;;;;10.78;100.00;-18318.31;4976665;28;20053;-81
2023/04/23 07:02:45;;;;;;;37.35;22.98;;;;;;;10.84;100.00;-18319.84;4977336;28;20046;-82
2023/04/23 07:05:10;;;;;;;39.35;27.77;;;;;;;10.93;100.00;-18322.31;4976592;28;20034;-82
2023/04/23 07:07:37;;;;;;;45.17;27.13;;;;;;;11.00;100.00;-18324.25;4976778;28;20070;-81
2023/04/23 07:10:03;;;;;;;36.95;25.13;;;;;;;11.10;100.00;-18326.72;4973131;28;20102;-81
2023/04/23 07:12:29;;;;;;;37.33;24.13;;;;;;;11.16;100.00;-18328.34;4967574;28;20388;-81
2023/04/23 07:14:55;;;;;;;33.17;24.30;;;;;;;11.20;100.00;-18329.47;4975368;28;20126;-81
2023/04/23 07:17:20;;;;;;;36.67;24.50;;;;;;;11.34;100.00;-18333.31;4974534;28;20046;-81
2023/04/23 07:19:46;;;;;;;30.27;20.13;;;;;;;11.40;100.00;-18334.81;4973343;28;20138;-80
2023/04/23 07:22:12;;;;;;;33.15;22.42;;;;;;;11.51;100.00;-18337.84;4975028;28;20047;-81
2023/04/23 07:24:37;;;;;;;32.55;23.48;;;;;;;11.67;100.00;-18342.22;4971359;28;20050;-81
2023/04/23 07:27:03;;;;;;;28.20;19.55;;;;;;;11.72;100.00;-18343.47;4981862;28;20070;-81
2023/04/23 07:29:28;;;;;;;30.20;22.10;;;;;;;11.83;100.00;-18346.47;5004715;28;20041;-82
2023/04/23 07:31:54;;;;;;;28.25;19.52;;;;;;;11.92;100.00;-18348.94;4979994;28;20047;-82
2023/04/23 07:34:19;;;;;;;27.48;19.10;;;;;;;11.93;100.00;-18349.22;4980642;28;20035;-81
2023/04/23 07:36:44;;;;;;;26.35;19.27;;;;;;;12.06;100.00;-18352.53;4980274;28;20045;-81
2023/04/23 07:39:10;;;;;;;26.40;17.13;;;;;;;12.05;100.00;-18352.25;4981188;28;20518;-81
2023/04/23 07:41:36;;;;;;;27.02;18.27;;;;;;;12.17;100.00;-18355.53;4972173;28;20038;-81
2023/04/23 07:44:01;;;;;;;24.25;18.27;;;;;;;12.33;100.00;-18359.78;4981320;28;20039;-81
2023/04/23 07:46:27;;;;;;;24.95;15.77;;;;;;;12.40;100.00;-18361.72;4981912;28;20138;-81
2023/04/23 07:48:52;;;;;;;27.40;17.05;;;;;;;12.50;100.00;-18364.31;4978518;28;20035;-81
2023/04/23 07:51:18;;;;;;;24.92;16.52;;;;;;;12.54;100.00;-18365.41;4968188;28;20103;-82
2023/04/23 07:53:43;;;;;;;22.50;15.70;;;;;;;12.61;100.00;-18367.47;4973458;28;20405;-82
2023/04/23 07:56:09;;;;;;;24.63;17.20;;;;;;;12.62;100.00;-18367.59;4990059;28;20042;-82
2023/04/23 07:58:34;;;;;;;20.10;14.93;;;;;;;12.69;100.00;-18369.53;4970828;28;20046;-84
2023/04/23 08:01:01;;;;;;;22.17;16.95;;;;;;;12.72;100.00;-18370.34;4969106;28;20085;-82
2023/04/23 08:03:27;;;;;;;22.90;16.75;;;;;;;12.79;100.00;-18372.13;4974101;28;20043;-82
2023/04/23 08:05:52;;;;;;;20.38;14.63;;;;;;;12.76;100.00;-18371.31;4973975;28;20038;-82
2023/04/23 08:08:18;;;;;;;19.25;14.98;;;;;;;12.77;100.00;-18371.72;4973734;28;20410;-82
2023/04/23 08:10:44;;;;;;;21.17;14.43;;;;;;;12.83;100.00;-18373.22;4969750;28;20517;-82
2023/04/23 08:13:10;;;;;;;19.65;13.02;;;;;;;12.95;100.00;-18376.53;4974352;28;20043;-82
2023/04/23 08:15:35;;;;;;;18.70;12.35;;;;;;;12.98;100.00;-18377.22;4970844;28;20038;-85
2023/04/23 08:18:02;;;;;;;18.52;12.30;;;;;;;13.03;100.00;-18378.72;4970626;28;20046;-84
2023/04/23 08:20:28;;;;;;;17.08;13.18;;;;;;;13.10;100.00;-18380.63;4969489;28;20042;-85
2023/04/23 08:22:54;;;;;;;14.57;10.75;;;;;;;13.17;100.00;-18382.28;4968139;28;20047;-83
2023/04/23 08:25:20;;;;;;;14.30;10.50;;;;;;;13.22;100.00;-18383.78;4976933;28;20043;-83
2023/04/23 08:27:45;;;;;;;14.70;11.40;;;;;;;13.25;100.00;-18384.63;4978747;28;20414;-83
2023/04/23 08:30:11;;;;;;;14.88;8.70;;;;;;;13.30;100.00;-18385.97;4973553;28;20066;-83
2023/04/23 08:32:38;;;;;;;13.07;9.57;;;;;;;13.38;100.00;-18387.91;4992003;28;20066;-83
2023/04/23 08:35:04;;;;;;;13.00;8.85;;;;;;;13.51;100.00;-18391.59;4971748;28;20045;-83
2023/04/23 08:37:29;;;;;;;12.50;9.38;;;;;;;13.60;100.00;-18393.78;4973721;28;20054;-84
2023/04/23 08:39:54;;;;;;;13.07;9.18;;;;;;;13.59;100.00;-18393.66;4969007;28;20105;-83
2023/04/23 08:42:34;;;;;;;10.52;7.45;;;;;;;13.69;100.00;-18396.41;4971746;28;20034;-83
2023/04/23 08:45:01;;;;;;;9.73;6.90;;;;;;;13.75;100.00;-18398.03;4973152;28;20519;-82
2023/04/23 08:47:28;;;;;;;10.95;7.18;;;;;;;13.95;100.00;-18403.25;4976074;28;20042;-82
2023/04/23 08:49:57;;;;;;;13.23;7.97;;;;;;;14.10;100.00;-18407.22;4991208;28;20738;-82
2023/04/23 08:52:24;;;;;;;12.48;8.20;;;;;;;14.16;100.00;-18409.00;4977626;28;20050;-82
2023/04/23 08:54:53;;;;;;;8.73;5.95;;;;;;;14.19;100.00;-18409.81;4977251;28;20039;-82
2023/04/23 08:57:19;;;;;;;;;;;;;;;14.14;100.00;-18408.31;4977525;28;20244;-83
2023/04/23 08:59:46;;;;;;;9.25;6.22;;;;;;;14.06;100.00;-18406.13;4978157;28;20035;-82
2023/04/23 09:02:13;;;;;;;10.05;7.68;;;;;;;14.10;100.00;-18407.34;4977734;28;20042;-82
2023/04/23 09:04:38;;;;;;;10.75;6.97;;;;;;;13.99;100.00;-18404.34;4989725;28;20121;-82
2023/04/23 09:07:06;;;;;;;9.45;6.63;;;;;;;14.12;100.00;-18407.75;4971368;28;20550;-82
2023/04/23 09:09:33;;;;;;;10.88;6.95;;;;;;;14.33;100.00;-18413.38;4978832;28;20421;-82
2023/04/23 09:11:59;;;;;;;11.73;7.70;;;;;;;14.50;100.00;-18417.91;4979091;28;20047;-82
2023/04/23 09:14:25;;;;;;;10.63;7.15;;;;;;;14.56;100.00;-18419.53;4977975;28;20142;-82
2023/04/23 09:16:51;;;;;;;11.40;6.60;;;;;;;14.65;100.00;-18422.00;4980993;28;20047;-82
2023/04/23 09:19:18;;;;;;;10.18;6.65;;;;;;;14.82;100.00;-18426.66;4980181;28;20053;-82
2023/04/23 09:21:45;;;;;;;9.75;5.60;;;;;;;14.99;100.00;-18431.19;4982775;28;20281;-82
2023/04/23 09:24:11;;;;;;;10.65;6.72;;;;;;;15.05;100.00;-18432.81;4972092;28;20056;-82
2023/04/23 09:27:03;;;;;;;9.68;6.57;;;;;;;15.01;100.00;-18431.72;4979478;28;20498;-82
2023/04/23 09:29:29;;;;;;;10.10;5.65;;;;;;;15.02;100.00;-18431.88;4990100;28;20047;-82
2023/04/23 09:32:05;;;;;;;11.82;5.43;;;;;;;15.23;100.00;-18437.59;4995512;28;20051;-82
2023/04/23 09:34:35;;;;;;;10.63;5.28;;;;;;;15.24;100.00;-18437.88;4994837;28;20046;-82
2023/04/23 09:37:02;;;;;;;7.20;5.22;;;;;;;15.46;100.00;-18443.75;4978035;28;20524;-83
2023/04/23 09:39:28;;;;;;;8.20;5.25;;;;;;;15.45;100.00;-18443.50;4977423;28;20065;-82
2023/04/23 09:42:04;;;;;;;7.93;5.60;;;;;;;15.40;100.00;-18442.13;4978257;28;20047;-83
2023/04/23 09:44:31;;;;;;;9.13;6.47;;;;;;;15.38;100.00;-18441.56;4976629;28;20205;-82
2023/04/23 09:47:05;;;;;;;11.60;6.07;;;;;;;15.28;100.00;-18438.84;4976983;28;20046;-83
2023/04/23 09:49:31;;;;;;;9.60;5.78;;;;;;;15.29;100.00;-18439.13;4976792;28;20122;-83
2023/04/23 09:52:05;;;;;;;10.90;6.68;;;;;;;15.44;100.00;-18443.22;4978206;28;20038;-83
2023/04/23 09:54:30;;;;;;;12.00;5.20;;;;;;;15.52;100.00;-18445.41;4979864;28;20073;-83
2023/04/23 09:57:00;;;;;;;9.68;5.55;;;;;;;15.51;100.00;-18445.00;4980814;28;20102;-83
2023/04/23 09:59:28;;;;;;;11.40;6.13;;;;;;;15.65;100.00;-18448.81;4992852;28;20502;-82
2023/04/23 10:01:54;;;;;;;10.63;4.60;;;;;;;15.57;100.00;-18446.63;4975128;28;20482;-82
2023/04/23 10:04:21;;;;;;;10.63;4.30;;;;;;;15.57;100.00;-18446.78;4995177;28;20138;-83
2023/04/23 10:06:53;;;;;;;7.50;4.13;;;;;;;15.53;100.00;-18445.69;4982077;28;20061;-82
2023/04/23 10:09:22;;;;;;;8.55;4.47;;;;;;;15.53;100.00;-18445.69;4978876;28;20439;-83
2023/04/23 10:11:50;;;;;;;8.40;3.55;;;;;;;15.62;100.00;-18447.88;4984126;28;20092;-82
2023/04/23 10:14:16;;;;;;;11.77;4.82;;;;;;;15.69;100.00;-18449.91;4980295;28;20034;-83
2023/04/23 10:16:45;;;;;;;6.93;4.50;;;;;;;15.71;100.00;-18450.47;4969540;28;20154;-83
2023/04/23 10:19:21;;;;;;;9.52;4.90;;;;;;;15.88;100.00;-18454.97;4973082;28;20062;-83
2023/04/23 10:21:50;;;;;;;10.02;3.92;;;;;;;16.06;100.00;-18459.63;4959925;28;20047;-83
2023/04/23 10:24:23;;;;;;;8.80;4.13;;;;;;;16.32;100.00;-18466.75;4975797;28;20046;-82
2023/04/23 10:26:50;;;;;;;8.82;3.88;;;;;;;16.32;100.00;-18466.75;4958216;28;20035;-83
2023/04/23 10:29:17;;;;;;;7.50;3.50;;;;;;;16.30;100.00;-18466.06;4956752;28;20122;-83
2023/04/23 10:31:44;;;;;;;5.60;2.95;;;;;;;16.13;100.00;-18461.53;4934312;28;20492;-83
2023/04/23 10:34:10;;;;;;;7.55;3.30;;;;;;;16.11;100.00;-18461.00;4933883;29;20039;-83
2023/04/23 10:36:37;;;;;;;6.80;2.85;;;;;;;16.16;100.00;-18462.38;4932403;29;20043;-83
2023/04/23 10:39:06;;;;;;;8.10;3.38;;;;;;;16.16;100.00;-18462.38;4933661;29;20048;-82
2023/04/23 10:41:38;;;;;;;8.32;3.17;;;;;;;16.17;100.00;-18462.78;4920505;29;20542;-83
2023/04/23 10:44:04;;;;;;;6.57;2.72;;;;;;;16.23;100.00;-18464.28;4911979;29;20048;-82
2023/04/23 10:46:31;;;;;;;5.70;2.35;;;;;;;16.36;100.00;-18467.69;4933014;29;20044;-82
2023/04/23 10:49:28;;;;;;;6.50;2.17;;;;;;;16.40;100.00;-18468.78;4932950;29;20111;-83
2023/04/23 10:52:03;;;;;;;5.93;2.10;;;;;;;16.38;100.00;-18468.25;4964401;28;20054;-83
2023/04/23 10:54:30;;;;;;;9.18;2.63;;;;;;;16.45;100.00;-18470.16;4978375;28;20085;-84
2023/04/23 10:57:03;;;;;;;7.95;2.60;;;;;;;16.42;100.00;-18469.47;4980667;28;20483;-84
2023/04/23 10:59:31;;;;;;;6.28;2.28;;;;;;;16.39;100.00;-18468.50;4977385;28;20055;-84
2023/04/23 11:01:58;;;;;;;8.82;2.20;;;;;;;16.42;100.00;-18469.47;4978961;28;20043;-84